createdAt,value
2018-10-06T00:00:30.417Z,12.50
2018-10-06T00:02:58.939Z,10.90
2018-10-06T00:05:27.429Z,9.10
2018-10-06T00:07:55.968Z,13.50
2018-10-06T00:10:24.489Z,8.00
2018-10-06T00:12:53.020Z,10.73
2018-10-06T00:15:21.526Z,12.20
2018-10-06T00:17:50.060Z,10.20
2018-10-06T00:20:18.570Z,15.40
2018-10-06T00:22:47.080Z,11.50
2018-10-06T00:25:15.575Z,14.47
2018-10-06T00:27:44.096Z,9.40
2018-10-06T00:30:12.634Z,14.23
2018-10-06T00:32:41.152Z,12.20
2018-10-06T00:35:09.667Z,19.40
2018-10-06T00:37:38.215Z,12.47
2018-10-06T00:40:06.747Z,13.03
2018-10-06T00:42:35.260Z,10.83
2018-10-06T00:45:03.785Z,10.10
2018-10-06T00:47:32.321Z,9.97
2018-10-06T00:50:00.826Z,9.90
2018-10-06T00:52:29.319Z,12.40
2018-10-06T00:54:57.836Z,11.77
2018-10-06T00:57:26.327Z,11.37
2018-10-06T00:59:54.862Z,13.77
2018-10-06T01:02:23.341Z,9.67
2018-10-06T01:04:51.857Z,13.20
2018-10-06T01:07:20.351Z,8.33
2018-10-06T01:09:48.873Z,8.70
2018-10-06T01:12:17.379Z,10.27
2018-10-06T01:14:45.902Z,9.50
2018-10-06T01:17:14.395Z,9.60
2018-10-06T01:19:42.999Z,14.93
2018-10-06T01:22:11.493Z,11.80
2018-10-06T01:24:39.999Z,10.40
2018-10-06T01:27:09.326Z,7.40
2018-10-06T01:29:37.841Z,10.33
2018-10-06T01:32:06.425Z,12.50
2018-10-06T01:34:35.251Z,9.87
2018-10-06T01:37:03.750Z,9.93
2018-10-06T01:39:32.562Z,16.27
2018-10-06T01:42:01.558Z,16.93
2018-10-06T01:44:30.093Z,12.90
2018-10-06T01:46:58.610Z,12.73
2018-10-06T01:49:27.141Z,11.10
2018-10-06T01:51:55.645Z,8.33
2018-10-06T01:54:24.159Z,20.83
2018-10-06T01:56:52.649Z,16.90
2018-10-06T01:59:21.181Z,9.97
2018-10-06T02:01:49.735Z,13.40
2018-10-06T02:04:22.218Z,10.00
2018-10-06T02:06:50.709Z,11.67
2018-10-06T02:09:19.242Z,12.60
2018-10-06T02:11:47.779Z,12.20
2018-10-06T02:14:16.321Z,12.33
2018-10-06T02:16:44.936Z,10.73
2018-10-06T02:19:13.451Z,9.10
2018-10-06T02:21:41.981Z,9.43
2018-10-06T02:24:10.509Z,19.03
2018-10-06T02:26:38.993Z,9.20
2018-10-06T02:29:07.517Z,12.37
2018-10-06T02:31:36.039Z,11.80
2018-10-06T02:34:04.642Z,22.00
2018-10-06T02:36:33.155Z,13.80
2018-10-06T02:39:01.693Z,13.50
2018-10-06T02:41:30.198Z,10.93
2018-10-06T02:43:58.718Z,9.93
2018-10-06T02:46:27.235Z,8.43
2018-10-06T02:48:55.789Z,9.27
2018-10-06T02:51:24.311Z,9.00
2018-10-06T02:53:52.917Z,10.13
2018-10-06T02:56:21.487Z,7.60
2018-10-06T02:58:49.990Z,10.97
2018-10-06T03:01:18.529Z,16.20
2018-10-06T03:03:47.024Z,11.27
2018-10-06T03:06:15.554Z,22.00
2018-10-06T03:08:44.054Z,10.97
2018-10-06T03:11:12.576Z,17.10
2018-10-06T03:13:41.103Z,16.20
2018-10-06T03:16:09.934Z,8.43
2018-10-06T03:18:38.429Z,13.70
2018-10-06T03:21:07.043Z,12.60
2018-10-06T03:23:35.551Z,9.63
2018-10-06T03:26:04.074Z,13.23
2018-10-06T03:28:32.592Z,16.40
2018-10-06T03:31:01.134Z,8.57
2018-10-06T03:33:29.678Z,9.27
2018-10-06T03:35:58.214Z,6.73
2018-10-06T03:38:26.714Z,7.57
2018-10-06T03:40:55.248Z,6.07
2018-10-06T03:43:23.735Z,7.10
2018-10-06T03:45:52.271Z,8.90
2018-10-06T03:48:20.773Z,6.53
2018-10-06T03:50:49.311Z,10.60
2018-10-06T03:53:17.804Z,8.00
2018-10-06T03:55:46.334Z,11.70
2018-10-06T03:58:14.871Z,11.37
2018-10-06T04:00:43.389Z,9.70
2018-10-06T04:03:11.909Z,9.37
2018-10-06T04:05:40.462Z,8.03
2018-10-06T04:08:09.058Z,14.77
2018-10-06T04:10:37.577Z,7.87
2018-10-06T04:13:06.330Z,11.00
2018-10-06T04:15:34.845Z,8.90
2018-10-06T04:18:03.351Z,9.77
2018-10-06T04:20:31.879Z,9.77
2018-10-06T04:23:00.389Z,10.87
2018-10-06T04:25:28.985Z,11.03
2018-10-06T04:27:57.535Z,11.80
2018-10-06T04:30:26.066Z,13.60
2018-10-06T04:32:54.556Z,9.40
2018-10-06T04:35:23.108Z,11.70
2018-10-06T04:37:51.601Z,11.30
2018-10-06T04:40:20.106Z,7.97
2018-10-06T04:42:48.611Z,11.00
2018-10-06T04:45:17.130Z,9.53
2018-10-06T04:47:45.630Z,10.60
2018-10-06T04:50:14.168Z,12.80
2018-10-06T04:52:42.675Z,9.53
2018-10-06T04:55:11.226Z,9.50
2018-10-06T04:57:39.748Z,8.23
2018-10-06T05:00:08.258Z,10.40
2018-10-06T05:02:36.777Z,11.07
2018-10-06T05:05:05.289Z,8.20
2018-10-06T05:07:33.820Z,12.10
2018-10-06T05:10:02.322Z,11.67
2018-10-06T05:12:30.851Z,8.50
2018-10-06T05:14:59.355Z,11.33
2018-10-06T05:17:28.107Z,11.97
2018-10-06T05:19:56.630Z,9.37
2018-10-06T05:22:25.164Z,14.73
2018-10-06T05:24:53.657Z,8.37
2018-10-06T05:27:22.182Z,13.80
2018-10-06T05:29:50.681Z,9.33
2018-10-06T05:32:19.205Z,10.43
2018-10-06T05:34:47.733Z,10.10
2018-10-06T05:37:16.268Z,7.97
2018-10-06T05:39:44.768Z,9.70
2018-10-06T05:42:13.293Z,8.30
2018-10-06T05:44:41.782Z,13.43
2018-10-06T05:47:10.315Z,10.93
2018-10-06T05:49:38.813Z,10.53
2018-10-06T05:52:07.341Z,8.73
2018-10-06T05:54:35.854Z,12.07
2018-10-06T05:57:04.381Z,12.90
2018-10-06T05:59:32.897Z,9.73
2018-10-06T06:02:01.440Z,11.87
2018-10-06T06:04:29.947Z,10.70
2018-10-06T06:06:58.511Z,9.40
2018-10-06T06:09:27.022Z,9.73
2018-10-06T06:11:55.566Z,8.80
2018-10-06T06:14:24.065Z,8.67
2018-10-06T06:16:52.591Z,7.50
2018-10-06T06:19:21.088Z,8.43
2018-10-06T06:21:49.609Z,9.63
2018-10-06T06:24:18.106Z,10.23
2018-10-06T06:26:46.625Z,9.30
2018-10-06T06:29:15.135Z,15.10
2018-10-06T06:31:43.648Z,11.63
2018-10-06T06:34:12.171Z,9.37
2018-10-06T06:36:40.687Z,12.07
2018-10-06T06:39:09.833Z,11.50
2018-10-06T06:41:38.773Z,11.00
2018-10-06T06:44:07.574Z,8.43
2018-10-06T06:46:36.177Z,13.70
2018-10-06T06:49:04.880Z,11.90
2018-10-06T06:51:33.421Z,15.23
2018-10-06T06:54:01.901Z,10.73
2018-10-06T06:56:30.446Z,15.03
2018-10-06T06:58:58.973Z,11.67
2018-10-06T07:01:27.465Z,13.27
2018-10-06T07:03:55.978Z,10.40
2018-10-06T07:06:24.478Z,15.33
2018-10-06T07:08:52.990Z,16.50
2018-10-06T07:11:21.516Z,14.70
2018-10-06T07:13:50.048Z,18.80
2018-10-06T07:16:18.580Z,16.57
2018-10-06T07:18:47.114Z,19.57
2018-10-06T07:21:15.632Z,18.27
2018-10-06T07:23:44.161Z,16.43
2018-10-06T07:26:12.666Z,22.40
2018-10-06T07:28:41.273Z,30.67
2018-10-06T07:31:09.767Z,19.40
2018-10-06T07:33:38.329Z,13.83
2018-10-06T07:36:07.145Z,20.77
2018-10-06T07:38:35.674Z,20.60
2018-10-06T07:41:04.181Z,13.33
2018-10-06T07:43:32.742Z,17.50
2018-10-06T07:46:01.347Z,15.03
2018-10-06T07:48:29.879Z,15.47
2018-10-06T07:50:58.384Z,16.73
2018-10-06T07:53:26.909Z,14.93
2018-10-06T07:55:55.415Z,14.03
2018-10-06T07:58:23.983Z,17.37
2018-10-06T08:00:52.504Z,15.10
2018-10-06T08:03:21.039Z,11.10
2018-10-06T08:05:49.542Z,13.43
2018-10-06T08:08:18.083Z,14.43
2018-10-06T08:10:46.588Z,12.60
2018-10-06T08:13:15.120Z,12.53
2018-10-06T08:15:43.643Z,12.70
2018-10-06T08:18:12.197Z,15.00
2018-10-06T08:20:40.706Z,11.60
2018-10-06T08:23:09.277Z,11.60
2018-10-06T08:25:37.784Z,12.57
2018-10-06T08:28:06.302Z,15.10
2018-10-06T08:30:34.830Z,15.63
2018-10-06T08:33:03.390Z,10.20
2018-10-06T08:35:31.918Z,15.30
2018-10-06T08:38:00.675Z,13.83
2018-10-06T08:40:29.567Z,11.10
2018-10-06T08:42:58.201Z,10.93
2018-10-06T08:45:26.937Z,10.60
2018-10-06T08:47:55.564Z,13.40
2018-10-06T08:50:24.199Z,11.20
2018-10-06T08:52:52.898Z,12.70
2018-10-06T08:55:21.450Z,10.73
2018-10-06T08:57:49.980Z,12.23
2018-10-06T09:00:25.243Z,14.53
2018-10-06T09:02:53.811Z,12.33
2018-10-06T09:05:22.368Z,12.50
2018-10-06T09:07:50.901Z,13.90
2018-10-06T09:10:19.453Z,15.57
2018-10-06T09:12:47.953Z,14.63
2018-10-06T09:15:16.481Z,15.43
2018-10-06T09:17:45.014Z,15.53
2018-10-06T09:20:13.541Z,14.63
2018-10-06T09:22:42.037Z,13.27
2018-10-06T09:25:10.590Z,13.10
2018-10-06T09:27:39.085Z,14.80
2018-10-06T09:30:07.684Z,15.67
2018-10-06T09:32:36.299Z,13.40
2018-10-06T09:35:04.862Z,10.87
2018-10-06T09:37:33.390Z,17.70
2018-10-06T09:40:01.923Z,12.57
2018-10-06T09:42:30.493Z,12.93
2018-10-06T09:44:59.015Z,11.87
2018-10-06T09:47:27.533Z,11.60
2018-10-06T09:49:56.109Z,10.37
2018-10-06T09:52:24.609Z,12.20
2018-10-06T09:54:53.127Z,11.80
2018-10-06T09:57:21.648Z,14.93
2018-10-06T09:59:50.179Z,11.40
2018-10-06T10:02:23.982Z,11.67
2018-10-06T10:04:52.560Z,14.30
2018-10-06T10:07:21.068Z,13.63
2018-10-06T10:09:49.650Z,9.77
2018-10-06T10:12:18.128Z,11.53
2018-10-06T10:14:46.668Z,11.93
2018-10-06T10:17:15.291Z,10.10
2018-10-06T10:19:43.816Z,10.47
2018-10-06T10:22:12.435Z,14.87
2018-10-06T10:24:40.890Z,11.93
2018-10-06T10:27:09.405Z,16.03
2018-10-06T10:29:37.947Z,11.13
2018-10-06T10:32:06.468Z,13.20
2018-10-06T10:34:35.100Z,14.33
2018-10-06T10:37:03.569Z,11.93
2018-10-06T10:39:32.184Z,15.50
2018-10-06T10:42:00.643Z,13.70
2018-10-06T10:44:29.248Z,13.63
2018-10-06T10:46:57.759Z,20.40
2018-10-06T10:49:26.356Z,13.10
2018-10-06T10:51:54.844Z,13.13
2018-10-06T10:54:23.412Z,15.47
2018-10-06T10:56:51.916Z,13.40
2018-10-06T10:59:20.508Z,15.23
2018-10-06T11:01:49.025Z,12.90
2018-10-06T11:04:17.565Z,11.23
2018-10-06T11:06:46.077Z,10.27
2018-10-06T11:09:14.586Z,12.43
2018-10-06T11:11:43.137Z,14.83
2018-10-06T11:14:11.668Z,14.80
2018-10-06T11:16:40.198Z,13.23
2018-10-06T11:19:08.705Z,19.67
2018-10-06T11:21:37.232Z,22.20
2018-10-06T11:24:05.772Z,17.13
2018-10-06T11:26:34.322Z,14.00
2018-10-06T11:29:02.825Z,14.30
2018-10-06T11:31:31.355Z,11.60
2018-10-06T11:33:59.892Z,12.80
2018-10-06T11:36:28.434Z,13.13
2018-10-06T11:38:57.002Z,11.20
2018-10-06T11:41:25.541Z,11.60
2018-10-06T11:43:54.171Z,12.30
2018-10-06T11:46:22.714Z,31.50
2018-10-06T11:48:51.227Z,20.60
2018-10-06T11:51:19.766Z,12.17
2018-10-06T11:53:48.306Z,13.17
2018-10-06T11:56:16.837Z,11.57
2018-10-06T11:58:45.368Z,23.77
2018-10-06T12:01:13.949Z,15.47
2018-10-06T12:03:42.461Z,15.40
2018-10-06T12:06:11.503Z,14.63
2018-10-06T12:08:40.057Z,11.83
2018-10-06T12:11:08.618Z,11.90
2018-10-06T12:13:37.135Z,13.10
2018-10-06T12:16:05.674Z,12.40
2018-10-06T12:18:34.177Z,13.83
2018-10-06T12:21:02.710Z,15.37
2018-10-06T12:23:31.213Z,12.70
2018-10-06T12:25:59.875Z,8.40
2018-10-06T12:28:28.365Z,14.13
2018-10-06T12:30:56.870Z,9.53
2018-10-06T12:33:25.418Z,12.03
2018-10-06T12:35:53.947Z,10.80
2018-10-06T12:38:22.486Z,12.63
2018-10-06T12:40:50.985Z,8.73
2018-10-06T12:43:19.519Z,10.83
2018-10-06T12:45:48.047Z,10.13
2018-10-06T12:48:16.575Z,9.87
2018-10-06T12:50:45.099Z,9.70
2018-10-06T12:53:13.679Z,12.60
2018-10-06T12:55:42.195Z,16.77
2018-10-06T12:58:10.737Z,11.30
2018-10-06T13:00:39.281Z,27.77
2018-10-06T13:03:07.805Z,16.30
2018-10-06T13:05:36.337Z,15.00
2018-10-06T13:08:04.869Z,13.13
2018-10-06T13:10:33.365Z,12.23
2018-10-06T13:13:01.899Z,10.10
2018-10-06T13:15:30.409Z,12.00
2018-10-06T13:18:01.893Z,11.03
2018-10-06T13:20:30.400Z,12.87
2018-10-06T13:22:58.949Z,11.87
2018-10-06T13:25:27.451Z,13.37
2018-10-06T13:27:55.981Z,12.30
2018-10-06T13:30:24.498Z,11.30
2018-10-06T13:32:53.145Z,12.17
2018-10-06T13:35:21.677Z,10.33
2018-10-06T13:37:50.304Z,11.57
2018-10-06T13:40:18.818Z,15.70
2018-10-06T13:42:47.349Z,8.80
2018-10-06T13:45:15.849Z,9.23
2018-10-06T13:47:44.369Z,13.27
2018-10-06T13:50:12.866Z,12.13
2018-10-06T13:52:41.384Z,9.83
2018-10-06T13:55:10.029Z,11.50
2018-10-06T13:57:38.594Z,10.87
2018-10-06T14:00:07.211Z,11.57
2018-10-06T14:02:35.738Z,9.73
2018-10-06T14:05:04.279Z,14.37
2018-10-06T14:07:33.042Z,9.10
2018-10-06T14:10:01.542Z,9.60
2018-10-06T14:12:30.056Z,17.07
2018-10-06T14:14:58.581Z,27.83
2018-10-06T14:17:27.108Z,26.27
2018-10-06T14:19:55.658Z,17.57
2018-10-06T14:22:23.409Z,10.27
2018-10-06T14:24:51.938Z,11.10
2018-10-06T14:27:20.447Z,9.33
2018-10-06T14:29:48.975Z,12.53
2018-10-06T14:32:17.485Z,24.13
2018-10-06T14:34:46.037Z,11.37
2018-10-06T14:37:14.541Z,16.40
2018-10-06T14:39:43.083Z,29.83
2018-10-06T14:42:11.598Z,23.80
2018-10-06T14:44:40.142Z,17.17
2018-10-06T14:47:08.713Z,8.67
2018-10-06T14:49:37.210Z,7.80
2018-10-06T14:52:05.723Z,8.27
2018-10-06T14:54:34.242Z,11.17
2018-10-06T14:57:02.785Z,11.77
2018-10-06T14:59:31.333Z,9.70
2018-10-06T15:01:59.878Z,8.70
2018-10-06T15:04:28.407Z,8.30
2018-10-06T15:06:56.921Z,8.43
2018-10-06T15:09:25.463Z,9.23
2018-10-06T15:11:53.986Z,7.70
2018-10-06T15:14:22.507Z,9.20
2018-10-06T15:16:51.014Z,9.00
2018-10-06T15:19:19.564Z,10.00
2018-10-06T15:21:48.074Z,8.90
2018-10-06T15:24:16.618Z,8.83
2018-10-06T15:26:45.128Z,12.47
2018-10-06T15:29:13.644Z,9.40
2018-10-06T15:31:42.188Z,10.40
2018-10-06T15:34:10.708Z,10.63
2018-10-06T15:36:39.304Z,9.13
2018-10-06T15:39:08.776Z,9.77
2018-10-06T15:41:37.609Z,15.93
2018-10-06T15:44:06.159Z,13.70
2018-10-06T15:46:34.692Z,7.50
2018-10-06T15:49:03.226Z,9.40
2018-10-06T15:51:31.759Z,7.90
2018-10-06T15:54:00.337Z,12.20
2018-10-06T15:56:28.959Z,9.60
2018-10-06T15:58:57.457Z,9.33
2018-10-06T16:01:25.994Z,7.97
2018-10-06T16:03:54.493Z,13.70
2018-10-06T16:06:23.017Z,7.80
2018-10-06T16:08:51.634Z,11.07
2018-10-06T16:11:20.162Z,13.47
2018-10-06T16:13:48.657Z,7.53
2018-10-06T16:16:17.178Z,8.07
2018-10-06T16:18:45.688Z,7.70
2018-10-06T16:21:14.208Z,7.30
2018-10-06T16:23:42.734Z,7.13
2018-10-06T16:26:11.520Z,8.23
2018-10-06T16:28:40.063Z,11.67
2018-10-06T16:31:08.589Z,10.70
2018-10-06T16:33:37.215Z,8.30
2018-10-06T16:36:05.690Z,11.63
2018-10-06T16:38:34.531Z,10.27
2018-10-06T16:41:03.025Z,10.63
2018-10-06T16:43:31.549Z,12.57
2018-10-06T16:46:00.044Z,8.20
2018-10-06T16:48:28.571Z,15.67
2018-10-06T16:50:57.059Z,10.50
2018-10-06T16:53:25.586Z,9.50
2018-10-06T16:55:54.093Z,8.37
2018-10-06T16:58:22.633Z,8.83
2018-10-06T17:00:51.144Z,9.23
2018-10-06T17:03:19.665Z,8.93
2018-10-06T17:05:48.185Z,10.60
2018-10-06T17:08:16.700Z,8.97
2018-10-06T17:10:45.200Z,8.93
2018-10-06T17:13:13.727Z,9.70
2018-10-06T17:15:42.234Z,10.97
2018-10-06T17:18:10.755Z,9.60
2018-10-06T17:20:39.246Z,12.60
2018-10-06T17:23:07.775Z,11.13
2018-10-06T17:25:36.286Z,11.43
2018-10-06T17:28:04.842Z,13.97
2018-10-06T17:30:33.347Z,13.40
2018-10-06T17:33:01.841Z,13.33
2018-10-06T17:35:30.570Z,14.00
2018-10-06T17:37:59.070Z,11.97
2018-10-06T17:40:27.616Z,16.60
2018-10-06T17:42:56.149Z,14.93
2018-10-06T17:45:24.671Z,10.53
2018-10-06T17:47:53.180Z,9.97
2018-10-06T17:50:21.834Z,14.77
2018-10-06T17:52:50.359Z,9.27
2018-10-06T17:55:18.873Z,12.80
2018-10-06T17:57:47.383Z,8.40
2018-10-06T18:00:15.918Z,11.23
2018-10-06T18:02:44.415Z,13.37
2018-10-06T18:05:12.939Z,10.90
2018-10-06T18:07:41.430Z,10.67
2018-10-06T18:10:09.962Z,12.53
2018-10-06T18:12:38.513Z,10.30
2018-10-06T18:15:07.086Z,11.17
2018-10-06T18:17:35.989Z,12.87
2018-10-06T18:20:04.875Z,10.87
2018-10-06T18:22:33.334Z,9.03
2018-10-06T18:25:01.863Z,11.10
2018-10-06T18:27:30.362Z,11.00
2018-10-06T18:29:58.860Z,13.30
2018-10-06T18:32:27.394Z,12.63
2018-10-06T18:34:55.918Z,11.73
2018-10-06T18:37:24.481Z,11.17
2018-10-06T18:39:52.971Z,10.10
2018-10-06T18:42:21.500Z,13.07
2018-10-06T18:44:50.012Z,10.87
2018-10-06T18:47:18.536Z,10.40
2018-10-06T18:49:47.026Z,13.70
2018-10-06T18:52:15.565Z,12.93
2018-10-06T18:54:44.075Z,10.23
2018-10-06T18:57:12.591Z,11.10
2018-10-06T18:59:41.080Z,11.43
2018-10-06T19:02:09.607Z,14.70
2018-10-06T19:04:38.111Z,13.20
2018-10-06T19:07:06.649Z,12.00
2018-10-06T19:09:35.147Z,12.50
2018-10-06T19:12:03.786Z,10.67
2018-10-06T19:14:32.339Z,11.30
2018-10-06T19:17:00.851Z,11.50
2018-10-06T19:19:29.343Z,13.00
2018-10-06T19:21:57.929Z,10.87
2018-10-06T19:24:26.466Z,13.87
2018-10-06T19:26:55.085Z,15.30
2018-10-06T19:29:23.613Z,13.17
2018-10-06T19:31:52.133Z,10.87
2018-10-06T19:34:20.686Z,11.43
2018-10-06T19:36:49.208Z,15.37
2018-10-06T19:39:17.729Z,18.50
2018-10-06T19:41:46.263Z,14.37
2018-10-06T19:44:17.758Z,12.87
2018-10-06T19:46:46.311Z,12.27
2018-10-06T19:49:14.814Z,12.30
2018-10-06T19:51:43.368Z,12.00
2018-10-06T19:54:11.885Z,13.20
2018-10-06T19:56:40.414Z,15.50
2018-10-06T19:59:08.913Z,19.50
2018-10-06T20:01:37.436Z,17.50
2018-10-06T20:04:05.992Z,27.60
2018-10-06T20:06:34.523Z,30.33
2018-10-06T20:09:03.082Z,14.00
2018-10-06T20:11:31.622Z,17.57
2018-10-06T20:14:00.120Z,21.17
2018-10-06T20:16:28.655Z,20.77
2018-10-06T20:18:57.230Z,18.10
2018-10-06T20:21:25.743Z,17.27
2018-10-06T20:23:54.261Z,15.63
2018-10-06T20:26:22.782Z,14.87
2018-10-06T20:28:51.306Z,16.57
2018-10-06T20:31:20.059Z,15.47
2018-10-06T20:33:48.592Z,18.60
2018-10-06T20:36:17.093Z,21.77
2018-10-06T20:38:45.639Z,22.13
2018-10-06T20:41:14.138Z,19.63
2018-10-06T20:43:42.666Z,29.80
2018-10-06T20:46:11.238Z,21.10
2018-10-06T20:48:39.761Z,20.00
2018-10-06T20:51:08.292Z,19.70
2018-10-06T20:53:36.819Z,17.40
2018-10-06T20:56:05.347Z,17.47
2018-10-06T20:58:33.882Z,15.13
2018-10-06T21:01:02.391Z,19.10
2018-10-06T21:03:30.930Z,21.10
2018-10-06T21:05:59.445Z,19.63
2018-10-06T21:08:28.002Z,20.97
2018-10-06T21:10:56.596Z,20.07
2018-10-06T21:13:25.108Z,22.93
2018-10-06T21:15:53.616Z,21.00
2018-10-06T21:18:22.177Z,23.80
2018-10-06T21:20:50.698Z,23.63
2018-10-06T21:23:19.244Z,19.00
2018-10-06T21:25:47.777Z,23.50
2018-10-06T21:28:16.323Z,20.20
2018-10-06T21:30:44.916Z,20.03
2018-10-06T21:33:13.489Z,23.33
2018-10-06T21:35:42.087Z,25.03
2018-10-06T21:38:10.622Z,24.77
2018-10-06T21:40:39.170Z,24.23
2018-10-06T21:43:07.731Z,35.20
2018-10-06T21:45:36.237Z,26.40
2018-10-06T21:48:04.781Z,33.60
2018-10-06T21:50:33.338Z,27.00
2018-10-06T21:53:01.884Z,26.90
2018-10-06T21:55:30.406Z,22.10
2018-10-06T21:57:59.021Z,22.27
2018-10-06T22:00:27.690Z,23.53
2018-10-06T22:02:56.241Z,21.37
2018-10-06T22:05:24.763Z,23.70
2018-10-06T22:07:53.489Z,23.27
2018-10-06T22:10:22.008Z,21.20
2018-10-06T22:12:50.535Z,22.07
2018-10-06T22:15:19.068Z,25.37
2018-10-06T22:17:47.655Z,23.57
2018-10-06T22:20:16.437Z,24.80
2018-10-06T22:22:44.990Z,25.93
2018-10-06T22:25:13.500Z,25.17
2018-10-06T22:27:42.051Z,23.83
2018-10-06T22:30:10.775Z,26.40
2018-10-06T22:32:39.313Z,23.60
2018-10-06T22:35:07.885Z,29.83
2018-10-06T22:37:36.405Z,25.80
2018-10-06T22:40:04.997Z,25.27
2018-10-06T22:42:33.524Z,30.30
2018-10-06T22:45:02.056Z,25.83
2018-10-06T22:47:30.604Z,30.83
2018-10-06T22:49:59.152Z,28.37
2018-10-06T22:52:27.662Z,26.87
2018-10-06T22:54:56.199Z,27.63
2018-10-06T22:57:24.714Z,29.00
2018-10-06T22:59:53.259Z,29.10
2018-10-06T23:02:21.764Z,25.20
2018-10-06T23:04:50.293Z,25.60
2018-10-06T23:07:18.793Z,30.67
2018-10-06T23:09:47.336Z,28.10
2018-10-06T23:12:15.837Z,26.13
2018-10-06T23:14:44.370Z,31.50
2018-10-06T23:17:12.889Z,26.50
2018-10-06T23:19:41.586Z,30.03
2018-10-06T23:22:10.097Z,28.10
2018-10-06T23:24:38.635Z,26.10
2018-10-06T23:27:07.153Z,28.17
2018-10-06T23:29:35.689Z,26.87
2018-10-06T23:32:04.197Z,25.00
2018-10-06T23:34:32.860Z,31.20
2018-10-06T23:37:01.385Z,30.43
2018-10-06T23:39:29.922Z,31.23
2018-10-06T23:41:58.456Z,30.63
2018-10-06T23:44:27.000Z,30.07
2018-10-06T23:46:55.510Z,36.03
2018-10-06T23:49:24.056Z,31.90
2018-10-06T23:51:52.569Z,32.47
2018-10-06T23:54:21.106Z,31.60
2018-10-06T23:56:49.618Z,31.73
2018-10-06T23:59:18.156Z,33.23
